Time;durP1;ratioP1;P1;durP2;ratioP2;P2;SDS_P1;SDS_P2;PMS_P1;PMS_P2;Temp;Humidity;BMP_temperature;BMP_pressure;BME280_temperature;BME280_humidity;BME280_pressure;Samples;Min_cycle;Max_cycle;Signal;HPM_P1;HPM_P2
2024/01/14 00:01:04;;;;;;;6.30;5.70;;;;;;;19.08;42.48;97440.25;5049621;28;20220;-26
2024/01/14 00:03:32;;;;;;;6.37;5.73;;;;;;;19.09;42.49;97434.34;5039941;28;20205;-28
2024/01/14 00:05:59;;;;;;;6.07;5.47;;;;;;;19.09;42.63;97417.38;5034768;28;20208;-28
2024/01/14 00:08:26;;;;;;;6.20;5.60;;;;;;;19.12;42.72;97420.03;5045729;28;20228;-27
2024/01/14 00:10:53;;;;;;;5.50;4.93;;;;;;;19.12;42.75;97411.53;5035070;28;20198;-31
2024/01/14 00:13:19;;;;;;;6.47;5.30;;;;;;;19.06;42.77;97402.00;5036288;28;20252;-36
2024/01/14 00:15:46;;;;;;;5.60;5.10;;;;;;;19.02;42.71;97402.69;5050821;28;20427;-28
2024/01/14 00:18:13;;;;;;;6.03;5.47;;;;;;;18.99;42.80;97397.50;5045177;28;20197;-26
2024/01/14 00:20:40;;;;;;;5.80;5.20;;;;;;;18.98;43.04;97389.78;5045644;28;20228;-27
2024/01/14 00:23:06;;;;;;;5.60;5.00;;;;;;;18.97;43.12;97390.59;5040994;28;20243;-27
2024/01/14 00:25:33;;;;;;;6.23;5.53;;;;;;;18.99;42.92;97392.41;5044948;28;20561;-27
2024/01/14 00:27:59;;;;;;;5.53;5.03;;;;;;;19.02;42.57;97389.97;5047431;28;20223;-27
2024/01/14 00:30:26;;;;;;;6.20;5.60;;;;;;;19.04;42.81;97384.94;5050455;28;20216;-32
2024/01/14 00:32:53;;;;;;;6.30;5.70;;;;;;;19.05;42.67;97381.56;5043026;28;20338;-26
2024/01/14 00:35:20;;;;;;;5.47;4.97;;;;;;;19.05;42.41;97379.91;5046376;28;20194;-31
2024/01/14 00:37:47;;;;;;;6.00;5.40;;;;;;;19.05;42.87;97373.91;5046957;28;20236;-26
2024/01/14 00:40:14;;;;;;;5.53;4.97;;;;;;;19.09;42.79;97374.09;5048903;28;20354;-25
2024/01/14 00:42:40;;;;;;;5.50;5.00;;;;;;;19.01;42.82;97349.16;5045584;28;20619;-25
2024/01/14 00:45:07;;;;;;;5.97;5.40;;;;;;;19.12;42.82;97363.13;5052703;28;20638;-26
2024/01/14 00:47:34;;;;;;;5.30;4.80;;;;;;;19.11;42.63;97369.94;5038538;28;20285;-26
2024/01/14 00:50:00;;;;;;;5.73;5.07;;;;;;;19.13;42.79;97354.69;5040287;28;20687;-25
2024/01/14 00:52:27;;;;;;;5.80;5.20;;;;;;;19.06;42.81;97360.38;5041267;28;20206;-25
2024/01/14 00:54:54;;;;;;;6.43;5.50;;;;;;;19.03;42.80;97357.72;5038245;28;20201;-26
2024/01/14 00:57:20;;;;;;;5.20;4.70;;;;;;;19.00;43.03;97357.59;5043245;28;20288;-26
2024/01/14 00:59:47;;;;;;;5.10;4.60;;;;;;;18.98;43.04;97346.50;5040021;28;20767;-26
2024/01/14 01:02:14;;;;;;;5.30;4.80;;;;;;;18.98;43.02;97343.97;5040059;28;20303;-25
2024/01/14 01:04:40;;;;;;;5.50;5.00;;;;;;;19.01;43.05;97346.63;5047618;28;20205;-25
2024/01/14 01:07:07;;;;;;;6.10;5.50;;;;;;;19.03;43.06;97334.78;5049574;28;20251;-25
2024/01/14 01:09:35;;;;;;;5.63;5.10;;;;;;;19.04;42.93;97329.75;5048321;28;20221;-25
2024/01/14 01:12:02;;;;;;;5.30;4.80;;;;;;;19.06;42.71;97327.25;5043507;28;20196;-26
2024/01/14 01:14:29;;;;;;;5.50;4.97;;;;;;;19.07;42.59;97321.38;5046086;28;20202;-25
2024/01/14 01:16:56;;;;;;;5.67;5.17;;;;;;;19.08;42.71;97311.22;5041712;28;20212;-25
2024/01/14 01:19:22;;;;;;;5.50;5.00;;;;;;;19.09;42.76;97314.63;5050396;28;20274;-26
2024/01/14 01:21:49;;;;;;;6.20;5.60;;;;;;;19.10;42.73;97314.69;5046631;28;20229;-26
2024/01/14 01:24:15;;;;;;;5.90;5.30;;;;;;;19.12;42.42;97320.72;5042258;28;20204;-25
2024/01/14 01:26:42;;;;;;;5.27;4.77;;;;;;;19.13;42.75;97308.84;5047546;28;20208;-26
2024/01/14 01:29:09;;;;;;;5.77;5.17;;;;;;;19.11;42.76;97301.16;5038641;28;20275;-25
2024/01/14 01:31:35;;;;;;;5.57;5.03;;;;;;;19.04;42.63;97294.09;5048652;28;20286;-25
2024/01/14 01:34:14;;;;;;;5.20;4.70;;;;;;;19.01;42.78;97288.88;5048017;28;20551;-26
2024/01/14 01:36:41;;;;;;;4.97;4.47;;;;;;;18.99;42.73;97298.19;5049472;28;20200;-25
2024/01/14 01:39:08;;;;;;;5.03;4.53;;;;;;;18.97;43.31;97294.69;5050778;28;20287;-26
2024/01/14 01:41:34;;;;;;;5.00;4.47;;;;;;;18.98;42.95;97291.31;5040673;28;20217;-26
2024/01/14 01:44:01;;;;;;;5.67;5.17;;;;;;;19.01;42.84;97285.50;5044564;28;20738;-25
2024/01/14 01:46:27;;;;;;;5.40;4.90;;;;;;;19.04;42.54;97285.59;5047254;28;20256;-25
2024/01/14 01:48:54;;;;;;;5.37;4.87;;;;;;;19.05;42.61;97285.66;5044763;28;20224;-26
2024/01/14 01:51:21;;;;;;;5.80;5.30;;;;;;;19.07;42.70;97272.97;5034640;28;20204;-25
2024/01/14 01:53:48;;;;;;;5.40;4.90;;;;;;;19.06;42.81;97267.00;5045360;28;20259;-26
2024/01/14 01:56:14;;;;;;;5.90;5.30;;;;;;;19.08;43.17;97270.47;5052687;28;20201;-25
2024/01/14 01:58:41;;;;;;;5.10;4.70;;;;;;;19.10;42.68;97279.03;5051337;28;20311;-25
2024/01/14 02:01:08;;;;;;;5.10;4.60;;;;;;;19.10;42.79;97268.84;5044236;28;20280;-25
2024/01/14 02:03:34;;;;;;;5.60;5.10;;;;;;;19.10;42.71;97266.28;5050573;28;20245;-25
2024/01/14 02:06:01;;;;;;;5.77;5.17;;;;;;;19.12;42.03;97271.44;5050601;28;20229;-26
2024/01/14 02:08:28;;;;;;;5.20;4.70;;;;;;;19.07;42.64;97273.81;5045294;28;20224;-27
2024/01/14 02:10:54;;;;;;;5.83;4.83;;;;;;;19.02;42.74;97261.75;5048114;28;20680;-25
2024/01/14 02:13:21;;;;;;;9.47;4.30;;;;;;;18.98;43.12;97260.78;5051979;28;20656;-25
2024/01/14 02:15:48;;;;;;;4.83;4.43;;;;;;;18.97;42.96;97266.69;5046476;28;20214;-25
2024/01/14 02:18:14;;;;;;;5.30;4.80;;;;;;;18.96;42.90;97259.00;5041445;28;20288;-26
2024/01/14 02:20:41;;;;;;;5.40;4.90;;;;;;;18.98;43.07;97258.22;5052416;28;20223;-26
2024/01/14 02:23:07;;;;;;;6.03;5.43;;;;;;;18.97;42.79;97238.69;5051721;28;20572;-25
2024/01/14 02:25:34;;;;;;;5.30;4.80;;;;;;;19.05;42.79;97247.47;5040867;28;20553;-26
2024/01/14 02:28:01;;;;;;;5.70;5.20;;;;;;;19.05;42.44;97244.03;5051889;28;20676;-26
2024/01/14 02:30:27;;;;;;;5.30;4.80;;;;;;;19.05;42.62;97237.28;5031305;28;20259;-26
2024/01/14 02:32:54;;;;;;;5.23;4.73;;;;;;;18.99;42.71;97218.34;5048691;28;20287;-25
2024/01/14 02:35:21;;;;;;;5.10;4.60;;;;;;;19.09;42.56;97225.47;5043798;28;20207;-26
2024/01/14 02:37:48;;;;;;;5.20;4.70;;;;;;;19.09;42.61;97231.47;5042308;28;20239;-24
2024/01/14 02:40:16;;;;;;;5.13;4.63;;;;;;;19.11;42.72;97229.84;5042812;28;20290;-25
2024/01/14 02:42:42;;;;;;;5.70;5.10;;;;;;;19.13;42.75;97229.88;5042605;28;20218;-25
2024/01/14 02:45:09;;;;;;;5.27;4.77;;;;;;;19.13;42.56;97222.25;5051652;28;20204;-25
2024/01/14 02:47:36;;;;;;;5.50;4.93;;;;;;;19.06;42.84;97218.63;5046985;28;20197;-26
2024/01/14 02:50:03;;;;;;;5.33;4.83;;;;;;;19.02;42.82;97224.44;5049374;28;20228;-26
2024/01/14 02:52:29;;;;;;;5.40;4.80;;;;;;;19.00;43.28;97226.06;5051480;28;20302;-26
2024/01/14 02:54:56;;;;;;;4.97;4.47;;;;;;;18.98;42.92;97221.72;5043625;28;20203;-26
2024/01/14 02:57:22;;;;;;;5.47;4.97;;;;;;;18.97;43.12;97220.84;5049655;28;20208;-25
2024/01/14 02:59:49;;;;;;;5.83;5.00;;;;;;;18.92;42.94;97216.44;5047052;28;20699;-26
2024/01/14 03:02:16;;;;;;;5.60;4.97;;;;;;;19.02;42.65;97231.19;5050686;28;20224;-26
2024/01/14 03:04:43;;;;;;;5.33;4.83;;;;;;;19.03;42.46;97231.25;5043460;28;20215;-26
2024/01/14 03:07:09;;;;;;;5.37;4.87;;;;;;;19.05;42.67;97232.19;5048181;28;20197;-25
2024/01/14 03:09:36;;;;;;;6.90;5.37;;;;;;;19.07;42.69;97232.22;5043606;28;20232;-26
2024/01/14 03:12:03;;;;;;;5.50;5.00;;;;;;;19.06;42.54;97228.81;5051418;28;20298;-26
2024/01/14 03:14:29;;;;;;;5.50;4.97;;;;;;;19.08;42.61;97232.28;5051106;28;20228;-25
2024/01/14 03:16:56;;;;;;;4.90;4.43;;;;;;;19.10;42.68;97234.88;5051417;28;20201;-26
2024/01/14 03:19:22;;;;;;;5.83;5.23;;;;;;;19.10;42.70;97220.44;5050916;28;20754;-26
2024/01/14 03:21:51;;;;;;;5.20;4.70;;;;;;;19.10;42.58;97229.78;5051283;28;20304;-25
2024/01/14 03:24:17;;;;;;;5.63;5.10;;;;;;;19.12;42.56;97220.50;5048532;28;20271;-26
2024/01/14 03:26:44;;;;;;;5.60;5.00;;;;;;;19.03;42.78;97217.63;5047886;28;20201;-25
2024/01/14 03:29:11;;;;;;;4.83;4.40;;;;;;;19.01;42.93;97219.28;5043581;28;20873;-26
2024/01/14 03:31:37;;;;;;;5.17;4.67;;;;;;;18.98;43.06;97217.47;5048197;28;20599;-25
2024/01/14 03:34:04;;;;;;;4.97;4.53;;;;;;;18.97;43.20;97210.66;5039525;28;20243;-25
2024/01/14 03:36:31;;;;;;;5.23;4.73;;;;;;;18.96;43.05;97205.53;5037324;28;20708;-26
2024/01/14 03:38:57;;;;;;;5.87;5.13;;;;;;;19.00;42.93;97204.78;5051114;28;20228;-25
2024/01/14 03:41:24;;;;;;;5.30;4.80;;;;;;;19.03;42.59;97198.13;5042420;28;20217;-25
2024/01/14 03:43:51;;;;;;;5.70;5.10;;;;;;;19.05;42.49;97191.44;5048406;28;20251;-25
2024/01/14 03:46:18;;;;;;;5.23;4.73;;;;;;;19.06;42.62;97198.25;5043929;28;20208;-26
2024/01/14 03:48:44;;;;;;;5.50;4.87;;;;;;;19.06;42.61;97190.59;5049839;28;20228;-25
2024/01/14 03:51:11;;;;;;;5.63;5.07;;;;;;;19.07;42.64;97197.41;5050853;28;20189;-25
2024/01/14 03:53:38;;;;;;;5.27;4.70;;;;;;;19.07;43.33;97194.88;5042528;28;20287;-25
2024/01/14 03:56:05;;;;;;;5.17;4.70;;;;;;;19.10;42.53;97200.06;5042404;28;20201;-26
2024/01/14 03:58:31;;;;;;;5.67;5.17;;;;;;;19.11;42.59;97185.66;5042636;28;20221;-25
2024/01/14 04:00:58;;;;;;;5.60;5.10;;;;;;;19.13;42.52;97191.69;5045424;28;20233;-25
2024/01/14 04:03:24;;;;;;;5.63;5.13;;;;;;;19.10;42.75;97196.69;5049650;28;20193;-26
2024/01/14 04:05:51;;;;;;;5.53;4.97;;;;;;;19.04;42.89;97189.66;5044149;28;20205;-25
2024/01/14 04:08:18;;;;;;;5.63;5.13;;;;;;;19.00;42.94;97195.50;5050469;28;20201;-25
2024/01/14 04:10:44;;;;;;;4.97;4.47;;;;;;;18.98;43.38;97192.00;5046950;28;20275;-25
2024/01/14 04:13:12;;;;;;;5.53;5.00;;;;;;;18.98;43.09;97198.81;5043030;28;20922;-26
2024/01/14 04:15:39;;;;;;;5.70;5.10;;;;;;;18.99;43.11;97196.31;5052598;28;20259;-25
2024/01/14 04:18:05;;;;;;;6.13;5.53;;;;;;;19.01;42.44;97202.31;5054560;28;20251;-26
2024/01/14 04:20:32;;;;;;;6.63;5.37;;;;;;;19.03;42.69;97197.25;5052470;28;20225;-26
2024/01/14 04:22:59;;;;;;;5.17;4.67;;;;;;;19.05;42.87;97198.19;5048146;28;20266;-25
2024/01/14 04:25:25;;;;;;;5.43;4.90;;;;;;;19.06;42.63;97205.00;5046471;28;20262;-25
2024/01/14 04:27:52;;;;;;;5.40;4.90;;;;;;;19.07;42.70;97199.97;5054709;28;20224;-25
2024/01/14 04:30:19;;;;;;;5.57;5.07;;;;;;;19.08;42.64;97193.19;5041103;28;20221;-24
2024/01/14 04:32:46;;;;;;;5.23;4.73;;;;;;;19.09;42.38;97195.81;5046405;28;20200;-25
2024/01/14 04:35:16;;;;;;;5.73;4.97;;;;;;;19.11;42.63;97191.63;5053966;28;20553;-26
2024/01/14 04:37:43;;;;;;;6.17;5.57;;;;;;;19.12;42.32;97189.94;5054415;28;20232;-25
2024/01/14 04:40:10;;;;;;;5.60;5.00;;;;;;;19.12;42.62;97188.25;5053157;28;20718;-25
2024/01/14 04:42:36;;;;;;;5.33;4.83;;;;;;;19.07;42.74;97191.47;5051701;28;20627;-25
2024/01/14 04:45:03;;;;;;;5.60;5.10;;;;;;;19.02;42.98;97188.78;5042642;28;20634;-25
2024/01/14 04:47:30;;;;;;;5.63;4.97;;;;;;;19.00;43.08;97189.53;5049979;28;20270;-25
2024/01/14 04:49:56;;;;;;;5.43;4.93;;;;;;;18.97;43.00;97190.28;5042395;28;20244;-25
2024/01/14 04:52:23;;;;;;;5.60;4.87;;;;;;;18.95;42.93;97189.38;5050620;28;20204;-25
2024/01/14 04:54:50;;;;;;;5.60;5.00;;;;;;;18.99;42.74;97186.13;5054180;28;20197;-25
2024/01/14 04:57:16;;;;;;;5.60;5.10;;;;;;;19.03;42.56;97181.97;5053850;28;20197;-25
2024/01/14 04:59:43;;;;;;;6.13;5.53;;;;;;;19.03;42.46;97171.78;5050786;28;20632;-25
2024/01/14 05:02:10;;;;;;;5.50;5.00;;;;;;;19.04;42.68;97176.09;5048690;28;20228;-25
2024/01/14 05:04:37;;;;;;;5.23;4.73;;;;;;;19.05;42.49;97173.59;5053525;28;20209;-26
2024/01/14 05:07:03;;;;;;;5.40;4.90;;;;;;;19.08;42.48;97162.63;5052527;28;20192;-26
2024/01/14 05:09:30;;;;;;;6.30;5.33;;;;;;;19.08;42.40;97165.19;5052901;28;20278;-25
2024/01/14 05:11:57;;;;;;;5.70;5.20;;;;;;;19.09;42.58;97151.63;5053687;28;20193;-25
2024/01/14 05:14:24;;;;;;;5.43;4.93;;;;;;;19.10;42.13;97156.75;5053336;28;20193;-25
2024/01/14 05:16:50;;;;;;;5.30;4.80;;;;;;;19.11;42.53;97157.66;5053458;28;20197;-25
2024/01/14 05:19:17;;;;;;;5.10;4.60;;;;;;;19.11;42.61;97158.53;5045834;28;20217;-25
2024/01/14 05:21:44;;;;;;;5.67;5.07;;;;;;;19.04;42.74;97158.28;5052832;28;20228;-25
2024/01/14 05:24:11;;;;;;;5.10;4.60;;;;;;;19.01;42.60;97160.72;5053234;28;20193;-25
2024/01/14 05:26:40;;;;;;;5.23;4.73;;;;;;;18.99;42.75;97158.13;5044148;28;20201;-25
2024/01/14 05:29:06;;;;;;;5.27;4.73;;;;;;;18.97;42.92;97159.75;5043503;28;20262;-25
2024/01/14 05:31:33;;;;;;;5.30;4.80;;;;;;;18.95;42.80;97158.81;5044739;28;20204;-25
2024/01/14 05:33:59;;;;;;;5.97;5.00;;;;;;;18.99;42.47;97158.13;5048051;28;20194;-24
2024/01/14 05:36:26;;;;;;;6.70;5.33;;;;;;;19.03;42.42;97166.69;5049707;28;20197;-26
2024/01/14 05:38:53;;;;;;;5.80;5.20;;;;;;;19.04;42.14;97168.47;5049111;28;20268;-25
2024/01/14 05:41:19;;;;;;;5.00;4.50;;;;;;;19.05;42.79;97160.00;5045976;28;20201;-25
2024/01/14 05:43:46;;;;;;;5.50;5.00;;;;;;;19.06;42.89;97172.78;5052632;28;20236;-25
2024/01/14 05:46:12;;;;;;;5.40;4.90;;;;;;;19.05;42.58;97165.97;5053033;28;20294;-26
2024/01/14 05:48:39;;;;;;;5.23;4.77;;;;;;;19.07;42.74;97159.22;5045513;28;20251;-25
2024/01/14 05:51:06;;;;;;;6.17;5.53;;;;;;;19.08;42.85;97160.09;5052985;28;20205;-25
2024/01/14 05:53:32;;;;;;;5.37;4.87;;;;;;;19.07;42.69;97159.22;5052692;28;20201;-25
2024/01/14 05:55:59;;;;;;;5.53;4.93;;;;;;;19.05;42.23;97147.25;5052828;28;20628;-25
2024/01/14 05:58:25;;;;;;;4.97;4.47;;;;;;;19.08;42.50;97147.34;5052715;28;20201;-26
2024/01/14 06:00:52;;;;;;;4.90;4.40;;;;;;;19.01;42.58;97146.28;5048507;28;20251;-26
2024/01/14 06:03:19;;;;;;;5.20;4.70;;;;;;;18.98;42.76;97143.63;5052236;28;20711;-25
2024/01/14 06:05:45;;;;;;;5.10;4.60;;;;;;;18.97;42.75;97148.69;5052271;28;20205;-25
2024/01/14 06:08:12;;;;;;;5.53;5.03;;;;;;;18.95;42.88;97146.06;5052457;28;20246;-25
2024/01/14 06:10:39;;;;;;;5.17;4.67;;;;;;;18.95;43.12;97153.72;5052424;28;20201;-26
2024/01/14 06:13:06;;;;;;;5.23;4.73;;;;;;;18.98;43.01;97152.97;5051733;28;20235;-25
2024/01/14 06:15:32;;;;;;;5.73;5.10;;;;;;;19.01;42.60;97153.91;5052266;28;20275;-25
2024/01/14 06:18:00;;;;;;;5.83;4.97;;;;;;;19.02;42.20;97148.03;5052084;28;20215;-26
2024/01/14 06:20:26;;;;;;;5.13;4.63;;;;;;;19.04;42.68;97143.84;5052338;28;20228;-27
2024/01/14 06:22:53;;;;;;;5.53;4.97;;;;;;;19.05;42.64;97137.06;5049877;28;20221;-25
2024/01/14 06:25:20;;;;;;;6.03;5.43;;;;;;;19.06;42.75;97138.78;5052307;28;20196;-25
2024/01/14 06:27:47;;;;;;;5.50;5.00;;;;;;;19.06;42.72;97142.22;5043882;28;20198;-25
2024/01/14 06:30:14;;;;;;;5.43;4.83;;;;;;;19.07;42.59;97141.38;5051634;28;20217;-26
2024/01/14 06:32:41;;;;;;;4.67;4.27;;;;;;;19.08;42.63;97147.34;5044029;28;20201;-25
2024/01/14 06:35:08;;;;;;;5.23;4.50;;;;;;;19.09;42.69;97141.44;5052167;28;20200;-26
2024/01/14 06:37:34;;;;;;;6.10;5.30;;;;;;;19.06;42.66;97129.47;5051824;28;20200;-25
2024/01/14 06:40:01;;;;;;;5.40;4.80;;;;;;;19.01;42.50;97137.78;5050669;28;20315;-26
2024/01/14 06:42:28;;;;;;;5.23;4.73;;;;;;;18.98;42.98;97130.06;5052855;28;20248;-26
2024/01/14 06:44:54;;;;;;;5.03;4.53;;;;;;;18.96;42.94;97124.91;5051967;28;20201;-28
2024/01/14 06:47:21;;;;;;;5.83;5.13;;;;;;;18.95;43.09;97128.25;5052230;28;20201;-27
2024/01/14 06:49:47;;;;;;;5.57;5.00;;;;;;;18.96;42.76;97118.94;5052043;28;20780;-27
2024/01/14 06:52:29;;;;;;;5.50;5.00;;;;;;;19.00;42.73;97118.22;5049154;28;20205;-26
2024/01/14 06:54:55;;;;;;;5.40;4.90;;;;;;;19.02;42.18;97117.47;5052207;28;20284;-30
2024/01/14 06:57:22;;;;;;;5.17;4.67;;;;;;;19.02;42.72;97120.03;5052255;28;20254;-27
2024/01/14 06:59:49;;;;;;;5.87;5.27;;;;;;;19.04;42.54;97122.63;5051821;28;20603;-26
2024/01/14 07:02:15;;;;;;;5.30;4.80;;;;;;;19.06;42.49;97123.50;5051916;28;20248;-28
2024/01/14 07:04:42;;;;;;;5.90;5.20;;;;;;;18.98;42.30;97107.97;5052150;28;20631;-31
2024/01/14 07:07:10;;;;;;;4.97;4.47;;;;;;;19.09;42.38;97119.38;5052350;28;20220;-30
2024/01/14 07:09:36;;;;;;;5.87;5.20;;;;;;;19.10;42.41;97120.28;5051735;28;20267;-26
2024/01/14 07:12:03;;;;;;;5.23;4.73;;;;;;;19.11;42.49;97117.78;5051641;28;20201;-27
2024/01/14 07:14:30;;;;;;;5.20;4.70;;;;;;;19.12;42.47;97116.94;5051722;28;20205;-31
2024/01/14 07:16:56;;;;;;;5.30;4.80;;;;;;;19.05;43.05;97115.03;5051509;28;20227;-28
2024/01/14 07:19:23;;;;;;;5.30;4.80;;;;;;;19.02;42.73;97124.22;5051272;28;20718;-27
2024/01/14 07:21:50;;;;;;;5.47;4.97;;;;;;;18.99;42.83;97116.50;5051910;28;20650;-27
2024/01/14 07:24:16;;;;;;;5.00;4.50;;;;;;;18.98;42.82;97120.72;5051704;28;20201;-29
2024/01/14 07:26:43;;;;;;;5.13;4.60;;;;;;;18.96;42.97;97122.38;5051499;28;20626;-29
2024/01/14 07:29:09;;;;;;;5.50;4.97;;;;;;;18.99;42.80;97121.59;5051697;28;20247;-27
2024/01/14 07:31:36;;;;;;;5.53;5.03;;;;;;;19.01;42.44;97120.81;5051688;28;20266;-40
2024/01/14 07:34:02;;;;;;;5.57;4.90;;;;;;;19.03;42.32;97123.41;5048525;28;20200;-29
2024/01/14 07:36:29;;;;;;;5.43;4.90;;;;;;;19.04;42.37;97117.53;5051428;28;20247;-28
2024/01/14 07:38:58;;;;;;;6.03;4.80;;;;;;;19.05;42.72;97115.03;5051136;28;20236;-26
2024/01/14 07:41:24;;;;;;;5.87;5.27;;;;;;;19.08;42.00;97115.13;5051588;28;20617;-26
2024/01/14 07:43:51;;;;;;;5.20;4.70;;;;;;;19.08;42.35;97121.88;5051132;28;20407;-33
2024/01/14 07:46:18;;;;;;;5.67;4.80;;;;;;;19.10;42.96;97135.53;5051660;28;20200;-26
2024/01/14 07:48:45;;;;;;;5.80;5.10;;;;;;;19.09;42.51;97132.13;5046570;28;20255;-28
2024/01/14 07:51:11;;;;;;;5.27;4.70;;;;;;;19.10;42.64;97128.75;5052948;28;20196;-27
2024/01/14 07:53:38;;;;;;;5.63;5.07;;;;;;;19.11;42.31;97127.09;5055303;28;20212;-42
2024/01/14 07:56:05;;;;;;;5.50;5.00;;;;;;;19.03;42.45;97116.66;5055472;28;20288;-27
2024/01/14 07:58:31;;;;;;;5.13;4.60;;;;;;;19.01;42.54;97110.63;5055388;28;20228;-26
2024/01/14 08:00:58;;;;;;;5.97;4.90;;;;;;;18.99;42.67;97103.75;5054982;28;20204;-28
2024/01/14 08:03:32;;;;;;;5.60;4.87;;;;;;;18.98;42.74;97102.03;5055232;28;20723;-27
2024/01/14 08:05:59;;;;;;;5.23;4.73;;;;;;;18.95;42.68;97105.34;5054747;28;20220;-27
2024/01/14 08:08:26;;;;;;;5.30;4.80;;;;;;;19.00;41.97;97113.13;5055478;28;20193;-30
2024/01/14 08:10:53;;;;;;;5.90;5.30;;;;;;;19.03;42.35;97113.22;5054868;28;20270;-27
2024/01/14 08:13:20;;;;;;;5.60;5.10;;;;;;;19.04;42.25;97120.06;5054789;28;20246;-27
2024/01/14 08:15:46;;;;;;;5.47;4.97;;;;;;;19.05;42.26;97115.03;5054955;28;20666;-30
2024/01/14 08:18:27;;;;;;;5.67;5.10;;;;;;;19.06;42.61;97109.09;5049734;28;20193;-28
2024/01/14 08:20:54;;;;;;;5.17;4.67;;;;;;;19.07;42.50;97108.28;5054772;28;20197;-26
2024/01/14 08:23:21;;;;;;;5.83;5.23;;;;;;;19.10;42.37;97110.09;5054957;28;20268;-29
2024/01/14 08:25:47;;;;;;;5.73;5.03;;;;;;;19.11;42.31;97112.69;5054531;28;20254;-27
2024/01/14 08:28:14;;;;;;;5.87;5.30;;;;;;;19.13;42.49;97107.63;5054805;28;20204;-27
2024/01/14 08:30:40;;;;;;;5.43;4.93;;;;;;;19.14;42.68;97106.81;5054540;28;20655;-27
2024/01/14 08:33:08;;;;;;;5.40;4.90;;;;;;;19.10;42.48;97104.97;5055014;28;20200;-27
2024/01/14 08:35:34;;;;;;;6.40;5.70;;;;;;;19.04;42.80;97103.09;5054486;28;20295;-26
2024/01/14 08:38:01;;;;;;;5.07;4.57;;;;;;;19.02;43.04;97101.31;5054856;28;20293;-26
2024/01/14 08:40:28;;;;;;;4.97;4.37;;;;;;;18.99;42.72;97109.72;5054336;28;20290;-30
2024/01/14 08:42:55;;;;;;;5.47;4.63;;;;;;;18.98;42.66;97105.44;5054541;28;20216;-27
2024/01/14 08:45:21;;;;;;;5.33;4.80;;;;;;;19.00;42.70;97103.81;5054646;28;20216;-27
2024/01/14 08:47:48;;;;;;;6.10;5.50;;;;;;;19.03;42.55;97103.03;5054421;28;20201;-31
2024/01/14 08:50:15;;;;;;;6.07;5.47;;;;;;;19.03;42.56;97106.47;5054439;28;20220;-28
2024/01/14 08:52:42;;;;;;;6.07;5.30;;;;;;;19.04;42.58;97113.28;5033791;28;20299;-26
2024/01/14 08:55:09;;;;;;;5.70;4.93;;;;;;;19.06;42.70;97106.56;5054117;28;20197;-27
2024/01/14 08:57:35;;;;;;;6.60;5.47;;;;;;;19.08;42.44;97107.47;5054428;28;20618;-27
2024/01/14 09:00:04;;;;;;;5.80;5.00;;;;;;;19.10;42.50;97097.34;5052822;28;20247;-26
2024/01/14 09:02:30;;;;;;;5.90;5.10;;;;;;;19.05;42.59;97087.00;5054113;28;20640;-28
2024/01/14 09:04:57;;;;;;;5.57;5.00;;;;;;;19.11;42.67;97110.13;5051575;28;20205;-27
2024/01/14 09:07:25;;;;;;;5.80;5.20;;;;;;;19.13;42.60;97107.63;5054623;28;20584;-27
2024/01/14 09:09:52;;;;;;;5.83;5.20;;;;;;;19.11;42.35;97107.59;5054511;28;20707;-26
2024/01/14 09:12:18;;;;;;;5.63;4.80;;;;;;;19.10;42.50;97116.00;5054245;28;20204;-26
2024/01/14 09:14:45;;;;;;;5.67;5.13;;;;;;;19.04;42.81;97113.28;5053889;28;20201;-26
2024/01/14 09:17:11;;;;;;;5.20;4.70;;;;;;;19.01;42.84;97117.41;5053556;28;20197;-28
2024/01/14 09:19:38;;;;;;;5.40;4.90;;;;;;;18.99;42.83;97114.81;5045783;28;20278;-26
2024/01/14 09:22:05;;;;;;;5.17;4.70;;;;;;;18.98;42.90;97113.06;5053876;28;20664;-26
2024/01/14 09:24:32;;;;;;;5.47;4.93;;;;;;;18.99;42.92;97111.41;5053516;28;20223;-27
2024/01/14 09:26:59;;;;;;;6.03;5.40;;;;;;;19.02;42.61;97111.50;5053675;28;20572;-26
2024/01/14 09:29:25;;;;;;;5.67;5.03;;;;;;;19.05;42.51;97106.50;5053498;28;20307;-26
2024/01/14 09:31:52;;;;;;;5.93;5.33;;;;;;;19.06;42.58;97110.78;5053301;28;20201;-31
2024/01/14 09:34:19;;;;;;;5.57;5.07;;;;;;;19.06;42.67;97106.56;5054027;28;20200;-27
2024/01/14 09:36:45;;;;;;;6.07;4.87;;;;;;;19.08;42.70;97104.06;5053366;28;20731;-26
2024/01/14 09:39:13;;;;;;;5.90;5.30;;;;;;;19.08;42.60;97102.41;5053374;28;20475;-26
2024/01/14 09:41:51;;;;;;;5.50;4.87;;;;;;;19.10;42.63;97108.38;5053582;28;20206;-27
2024/01/14 09:44:18;;;;;;;5.53;4.93;;;;;;;19.12;42.58;97096.56;5028655;28;20216;-26
2024/01/14 09:46:45;;;;;;;6.10;5.50;;;;;;;19.12;42.69;97086.38;5051874;28;20266;-27
2024/01/14 09:49:11;;;;;;;4.93;4.43;;;;;;;19.12;42.44;97088.03;5053026;28;20248;-27
2024/01/14 09:51:43;;;;;;;6.00;5.30;;;;;;;19.07;42.57;97087.06;5053355;28;20726;-26
2024/01/14 09:54:10;;;;;;;5.50;4.90;;;;;;;19.02;42.75;97083.50;5035648;28;20208;-26
2024/01/14 09:56:37;;;;;;;5.33;4.83;;;;;;;18.97;42.86;97072.28;5051914;28;20205;-28
2024/01/14 09:59:04;;;;;;;5.57;4.97;;;;;;;18.97;42.96;97073.16;5035245;28;20588;-28
2024/01/14 10:01:31;;;;;;;5.10;4.60;;;;;;;18.97;42.84;97080.81;5053156;28;20205;-27
2024/01/14 10:04:01;;;;;;;6.17;5.30;;;;;;;19.00;42.70;97075.81;5051644;28;20278;-29
2024/01/14 10:06:28;;;;;;;5.60;4.93;;;;;;;19.03;42.51;97075.03;5052744;28;20200;-28
2024/01/14 10:08:55;;;;;;;5.90;5.30;;;;;;;19.03;42.67;97063.16;5053001;28;20304;-27
2024/01/14 10:11:24;;;;;;;5.73;5.10;;;;;;;19.05;42.55;97064.09;5052256;28;20208;-28
2024/01/14 10:13:50;;;;;;;5.67;5.17;;;;;;;19.07;42.59;97064.13;5052922;28;20254;-27
2024/01/14 10:16:17;;;;;;;6.63;5.73;;;;;;;19.05;42.42;97045.38;5052487;28;20261;-27
2024/01/14 10:19:04;;;;;;;5.53;5.00;;;;;;;19.09;42.41;97053.19;5051181;28;20228;-26
2024/01/14 10:21:31;;;;;;;5.93;5.03;;;;;;;19.10;42.62;97049.78;5049427;28;20655;-26
2024/01/14 10:24:00;;;;;;;6.17;5.57;;;;;;;19.10;42.53;97039.59;5052119;28;20613;-28
2024/01/14 10:26:27;;;;;;;5.40;4.90;;;;;;;19.11;42.53;97045.59;5052643;28;20203;-27
2024/01/14 10:28:53;;;;;;;5.10;4.60;;;;;;;19.09;42.57;97037.88;5043070;28;20719;-26
2024/01/14 10:31:20;;;;;;;6.00;5.03;;;;;;;19.03;42.58;97040.25;5047137;28;20680;-27
2024/01/14 10:33:46;;;;;;;5.37;4.87;;;;;;;19.01;42.77;97041.03;5052713;28;20197;-28
2024/01/14 10:36:13;;;;;;;6.17;5.40;;;;;;;18.98;42.83;97041.78;5052559;28;20212;-31
2024/01/14 10:38:40;;;;;;;5.80;5.20;;;;;;;18.98;43.16;97030.75;5031262;28;20232;-26
2024/01/14 10:41:07;;;;;;;4.97;4.50;;;;;;;18.98;42.68;97023.09;5050449;28;20205;-26
2024/01/14 10:43:34;;;;;;;5.57;4.97;;;;;;;19.00;42.38;97019.78;5052036;28;20213;-27
2024/01/14 10:46:01;;;;;;;5.70;5.10;;;;;;;19.03;42.67;97006.28;5051988;28;20596;-26
2024/01/14 10:48:27;;;;;;;6.13;5.53;;;;;;;19.05;42.37;97005.53;5034644;28;20286;-30
2024/01/14 10:50:56;;;;;;;5.93;5.33;;;;;;;18.98;42.30;96990.84;5051847;28;20283;-26
2024/01/14 10:53:26;;;;;;;5.87;4.97;;;;;;;19.07;42.49;96993.69;5051357;28;20605;-26
2024/01/14 10:55:59;;;;;;;6.30;5.40;;;;;;;19.10;42.47;96990.38;5050755;28;20204;-27
2024/01/14 10:58:26;;;;;;;6.07;5.33;;;;;;;19.09;42.47;96989.50;5040240;28;20690;-26
2024/01/14 11:00:57;;;;;;;6.03;5.03;;;;;;;19.12;42.44;96981.06;5046735;28;20216;-27
2024/01/14 11:03:24;;;;;;;5.33;4.83;;;;;;;19.12;42.29;96976.00;5048450;28;20218;-32
2024/01/14 11:05:51;;;;;;;5.50;5.00;;;;;;;19.13;42.42;96972.66;5045654;28;20687;-26
2024/01/14 11:08:18;;;;;;;5.43;4.87;;;;;;;19.07;42.21;96967.38;5039639;28;20288;-26
2024/01/14 11:10:45;;;;;;;5.40;4.90;;;;;;;19.00;42.57;96951.03;5034555;28;20196;-27
2024/01/14 11:13:38;;;;;;;5.63;4.73;;;;;;;19.00;42.82;96950.16;5032506;28;20198;-26
2024/01/14 11:16:35;;;;;;;5.40;4.70;;;;;;;18.94;42.76;96938.13;5042501;28;20251;-27
2024/01/14 11:19:04;;;;;;;4.77;4.33;;;;;;;18.97;42.78;96945.84;5044764;28;20726;-26
2024/01/14 11:21:52;;;;;;;5.50;5.00;;;;;;;19.01;42.71;96940.00;5044940;28;20211;-26
2024/01/14 11:24:39;;;;;;;5.93;5.17;;;;;;;19.03;42.64;96933.28;5046520;28;20746;-26
2024/01/14 11:27:05;;;;;;;5.37;4.83;;;;;;;19.04;42.73;96935.00;5042389;28;20201;-27
2024/01/14 11:29:44;;;;;;;5.37;4.87;;;;;;;19.06;43.10;96927.41;5035621;28;20741;-26
2024/01/14 11:32:16;;;;;;;4.90;4.40;;;;;;;19.07;42.71;96926.63;5049314;28;20637;-27
2024/01/14 11:34:49;;;;;;;5.73;5.03;;;;;;;19.07;42.70;96922.38;5038387;28;20202;-26